createdAt,value
2018-09-02T00:01:14.887Z,15.30
2018-09-02T00:03:45.586Z,15.30
2018-09-02T00:06:15.330Z,15.30
2018-09-02T00:08:45.730Z,15.30
2018-09-02T00:11:15.419Z,15.30
2018-09-02T00:13:45.635Z,15.30
2018-09-02T00:16:15.679Z,15.30
2018-09-02T00:18:46.564Z,15.30
2018-09-02T00:21:16.344Z,15.30
2018-09-02T00:23:46.579Z,15.30
2018-09-02T00:26:16.322Z,15.30
2018-09-02T00:28:46.555Z,15.30
2018-09-02T00:31:16.402Z,15.30
2018-09-02T00:33:46.849Z,15.30
2018-09-02T00:36:16.464Z,15.30
2018-09-02T00:38:46.631Z,15.30
2018-09-02T00:41:16.306Z,15.20
2018-09-02T00:43:46.384Z,15.20
2018-09-02T00:46:16.129Z,15.20
2018-09-02T00:48:47.045Z,15.20
2018-09-02T00:51:16.803Z,15.20
2018-09-02T00:53:47.139Z,15.20
2018-09-02T00:56:16.819Z,15.30
2018-09-02T00:58:46.942Z,15.20
2018-09-02T01:01:16.748Z,15.20
2018-09-02T01:03:46.996Z,15.20
2018-09-02T01:06:16.741Z,15.20
2018-09-02T01:08:46.992Z,15.20
2018-09-02T01:11:16.776Z,15.20
2018-09-02T01:13:46.427Z,15.20
2018-09-02T01:16:16.132Z,15.20
2018-09-02T01:18:46.701Z,15.20
2018-09-02T01:21:16.343Z,15.10
2018-09-02T01:23:46.321Z,15.20
2018-09-02T01:26:16.033Z,15.10
2018-09-02T01:28:45.872Z,15.20
2018-09-02T01:31:15.576Z,15.10
2018-09-02T01:33:46.840Z,15.20
2018-09-02T01:36:16.514Z,15.20
2018-09-02T01:38:46.455Z,15.20
2018-09-02T01:41:16.200Z,15.20
2018-09-02T01:43:47.864Z,15.20
2018-09-02T01:46:17.451Z,15.20
2018-09-02T01:48:48.223Z,15.20
2018-09-02T01:51:17.832Z,15.20
2018-09-02T01:53:47.800Z,15.20
2018-09-02T01:56:17.503Z,15.20
2018-09-02T01:58:47.324Z,15.20
2018-09-02T02:01:20.222Z,15.30
2018-09-02T02:03:50.585Z,15.30
2018-09-02T02:06:20.365Z,15.30
2018-09-02T02:08:50.304Z,15.30
2018-09-02T02:11:19.930Z,15.30
2018-09-02T02:13:49.978Z,15.30
2018-09-02T02:16:19.687Z,15.30
2018-09-02T02:18:49.512Z,15.30
2018-09-02T02:21:19.187Z,15.30
2018-09-02T02:23:49.430Z,15.30
2018-09-02T02:26:19.024Z,15.20
2018-09-02T02:28:48.754Z,15.20
2018-09-02T02:31:18.513Z,15.30
2018-09-02T02:33:48.236Z,15.30
2018-09-02T02:36:17.851Z,15.30
2018-09-02T02:38:47.560Z,15.30
2018-09-02T02:41:17.251Z,15.30
2018-09-02T02:43:47.543Z,15.20
2018-09-02T02:46:17.140Z,15.20
2018-09-02T02:48:46.876Z,15.20
2018-09-02T02:51:16.523Z,15.20
2018-09-02T02:53:46.651Z,15.20
2018-09-02T02:56:16.195Z,15.20
2018-09-02T02:58:45.975Z,15.20
2018-09-02T03:01:22.205Z,15.20
2018-09-02T03:03:52.304Z,15.20
2018-09-02T03:06:21.956Z,15.10
2018-09-02T03:08:51.905Z,15.10
2018-09-02T03:11:21.567Z,15.10
2018-09-02T03:13:51.213Z,15.10
2018-09-02T03:16:20.878Z,15.10
2018-09-02T03:18:50.517Z,15.20
2018-09-02T03:21:20.130Z,15.20
2018-09-02T03:23:49.725Z,15.10
2018-09-02T03:26:19.334Z,15.10
2018-09-02T03:28:48.923Z,15.10
2018-09-02T03:31:18.529Z,15.10
2018-09-02T03:33:48.664Z,15.10
2018-09-02T03:36:18.271Z,15.10
2018-09-02T03:38:47.929Z,15.10
2018-09-02T03:41:17.557Z,15.20
2018-09-02T03:43:47.414Z,15.10
2018-09-02T03:46:16.959Z,15.10
2018-09-02T03:48:47.598Z,15.10
2018-09-02T03:51:17.180Z,15.10
2018-09-02T03:53:46.859Z,15.10
2018-09-02T03:56:16.485Z,15.10
2018-09-02T03:58:46.127Z,15.10
2018-09-02T04:01:15.954Z,15.10
2018-09-02T04:03:46.578Z,15.10
2018-09-02T04:06:16.336Z,15.10
2018-09-02T04:08:45.943Z,15.10
2018-09-02T04:11:15.555Z,15.10
2018-09-02T04:13:45.203Z,15.10
2018-09-02T04:16:14.773Z,15.10
2018-09-02T04:18:46.101Z,15.10
2018-09-02T04:21:15.691Z,15.20
2018-09-02T04:23:45.272Z,15.20
2018-09-02T04:26:14.870Z,15.20
2018-09-02T04:28:44.494Z,15.10
2018-09-02T04:31:14.205Z,15.10
2018-09-02T04:33:46.093Z,15.10
2018-09-02T04:36:15.619Z,15.10
2018-09-02T04:38:45.182Z,15.20
2018-09-02T04:41:14.752Z,15.10
2018-09-02T04:43:44.344Z,15.10
2018-09-02T04:46:13.990Z,15.10
2018-09-02T04:48:45.776Z,15.10
2018-09-02T04:51:15.410Z,15.20
2018-09-02T04:53:44.977Z,15.20
2018-09-02T04:56:14.537Z,15.20
2018-09-02T04:58:44.152Z,15.20
2018-09-02T05:01:13.776Z,15.20
2018-09-02T05:03:45.106Z,15.20
2018-09-02T05:06:14.722Z,15.30
2018-09-02T05:08:44.328Z,15.20
2018-09-02T05:11:13.964Z,15.20
2018-09-02T05:13:43.640Z,15.20
2018-09-02T05:16:13.216Z,15.20
2018-09-02T05:18:44.907Z,15.30
2018-09-02T05:21:14.510Z,15.30
2018-09-02T05:23:44.066Z,15.30
2018-09-02T05:26:13.636Z,15.30
2018-09-02T05:28:43.283Z,15.30
2018-09-02T05:31:12.930Z,15.30
2018-09-02T05:33:44.128Z,15.30
2018-09-02T05:36:14.213Z,15.30
2018-09-02T05:38:43.830Z,15.30
2018-09-02T05:41:13.417Z,15.30
2018-09-02T05:43:43.010Z,15.30
2018-09-02T05:46:12.673Z,15.30
2018-09-02T05:48:44.468Z,15.40
2018-09-02T05:51:14.083Z,15.40
2018-09-02T05:53:43.663Z,15.30
2018-09-02T05:56:13.322Z,15.30
2018-09-02T05:58:42.914Z,15.30
2018-09-02T06:01:12.580Z,15.40
2018-09-02T06:03:43.788Z,15.30
2018-09-02T06:06:21.854Z,15.30
2018-09-02T06:08:51.656Z,15.40
2018-09-02T06:11:21.303Z,15.40
2018-09-02T06:13:50.879Z,15.40
2018-09-02T06:16:20.537Z,15.40
2018-09-02T06:18:50.152Z,15.40
2018-09-02T06:21:19.857Z,15.40
2018-09-02T06:23:49.457Z,15.40
2018-09-02T06:26:19.272Z,15.50
2018-09-02T06:28:48.971Z,15.50
2018-09-02T06:31:19.012Z,15.50
2018-09-02T06:33:48.775Z,15.60
2018-09-02T06:36:18.476Z,15.50
2018-09-02T06:38:48.311Z,15.60
2018-09-02T06:41:17.941Z,15.60
2018-09-02T06:43:47.566Z,15.50
2018-09-02T06:46:17.268Z,15.50
2018-09-02T06:48:47.929Z,15.50
2018-09-02T06:51:17.525Z,15.50
2018-09-02T06:53:47.121Z,15.50
2018-09-02T06:56:16.694Z,15.60
2018-09-02T06:58:46.360Z,15.60
2018-09-02T07:01:15.892Z,15.60
2018-09-02T07:03:46.906Z,15.70
2018-09-02T07:06:16.453Z,15.70
2018-09-02T07:08:46.026Z,15.60
2018-09-02T07:11:15.641Z,15.60
2018-09-02T07:13:45.221Z,15.60
2018-09-02T07:16:14.913Z,15.60
2018-09-02T07:18:45.371Z,15.60
2018-09-02T07:21:14.915Z,15.70
2018-09-02T07:23:44.531Z,15.70
2018-09-02T07:26:14.144Z,15.70
2018-09-02T07:28:43.770Z,15.80
2018-09-02T07:31:13.491Z,15.80
2018-09-02T07:33:44.972Z,15.90
2018-09-02T07:36:14.550Z,16.00
2018-09-02T07:38:44.260Z,16.10
2018-09-02T07:41:13.965Z,16.10
2018-09-02T07:43:43.648Z,16.20
2018-09-02T07:46:13.320Z,16.20
2018-09-02T07:48:44.761Z,16.30
2018-09-02T07:51:15.824Z,16.40
2018-09-02T07:53:45.629Z,16.50
2018-09-02T07:56:15.368Z,16.50
2018-09-02T07:58:44.986Z,16.50
2018-09-02T08:01:14.622Z,16.50
2018-09-02T08:03:46.608Z,16.60
2018-09-02T08:06:16.202Z,16.60
2018-09-02T08:08:45.904Z,16.60
2018-09-02T08:11:15.566Z,16.60
2018-09-02T08:13:45.203Z,16.60
2018-09-02T08:16:14.818Z,16.60
2018-09-02T08:18:46.783Z,16.60
2018-09-02T08:21:16.387Z,16.60
2018-09-02T08:23:46.130Z,16.60
2018-09-02T08:26:15.833Z,16.60
2018-09-02T08:28:45.507Z,16.60
2018-09-02T08:31:15.218Z,16.50
2018-09-02T08:33:46.345Z,16.50
2018-09-02T08:36:15.957Z,16.50
2018-09-02T08:38:45.656Z,16.60
2018-09-02T08:41:15.371Z,16.60
2018-09-02T08:43:45.241Z,16.60
2018-09-02T08:46:19.241Z,16.70
2018-09-02T08:48:53.631Z,16.70
2018-09-02T08:51:26.026Z,16.80
2018-09-02T08:53:56.845Z,16.80
2018-09-02T08:56:28.034Z,16.90
2018-09-02T08:58:57.936Z,17.00
2018-09-02T09:01:28.920Z,17.10
2018-09-02T09:03:59.164Z,17.30
2018-09-02T09:06:28.751Z,17.30
2018-09-02T09:08:58.617Z,17.40
2018-09-02T09:11:28.203Z,17.60
2018-09-02T09:13:57.922Z,17.60
2018-09-02T09:16:27.711Z,17.80
2018-09-02T09:18:57.349Z,18.00
2018-09-02T09:21:27.078Z,18.10
2018-09-02T09:23:57.306Z,18.20
2018-09-02T09:26:26.977Z,18.40
2018-09-02T09:28:56.628Z,18.30
2018-09-02T09:31:26.265Z,18.30
2018-09-02T09:33:55.909Z,18.40
2018-09-02T09:36:25.582Z,18.60
2018-09-02T09:38:55.285Z,18.70
2018-09-02T09:41:25.013Z,18.80
2018-09-02T09:43:54.635Z,18.80
2018-09-02T09:46:24.368Z,18.90
2018-09-02T09:48:54.701Z,19.00
2018-09-02T09:51:24.462Z,19.00
2018-09-02T09:53:54.540Z,19.00
2018-09-02T09:56:26.091Z,19.10
2018-09-02T09:58:57.024Z,19.20
2018-09-02T10:01:26.624Z,19.40
2018-09-02T10:03:56.254Z,19.50
2018-09-02T10:06:25.990Z,19.80
2018-09-02T10:09:00.613Z,20.00
2018-09-02T10:11:30.237Z,20.10
2018-09-02T10:13:59.913Z,20.20
2018-09-02T10:16:29.531Z,20.20
2018-09-02T10:18:59.147Z,20.20
2018-09-02T10:21:28.756Z,20.50
2018-09-02T10:23:58.360Z,20.50
2018-09-02T10:26:28.055Z,20.60
2018-09-02T10:28:57.976Z,20.50
2018-09-02T10:31:27.837Z,20.40
2018-09-02T10:33:57.500Z,20.40
2018-09-02T10:36:27.307Z,20.40
2018-09-02T10:38:57.137Z,20.40
2018-09-02T10:41:26.943Z,20.40
2018-09-02T10:43:56.493Z,20.50
2018-09-02T10:46:26.261Z,20.70
2018-09-02T10:48:55.936Z,20.80
2018-09-02T10:51:26.676Z,21.10
2018-09-02T10:53:56.354Z,21.40
2018-09-02T10:56:26.309Z,21.50
2018-09-02T10:58:56.079Z,21.60
2018-09-02T11:01:25.676Z,21.70
2018-09-02T11:03:55.296Z,21.80
2018-09-02T11:06:25.059Z,21.80
2018-09-02T11:08:54.693Z,21.60
2018-09-02T11:11:24.479Z,21.70
2018-09-02T11:13:54.358Z,21.60
2018-09-02T11:16:23.954Z,21.60
2018-09-02T11:18:53.707Z,21.60
2018-09-02T11:21:23.466Z,21.70
2018-09-02T11:23:53.125Z,21.70
2018-09-02T11:26:24.042Z,21.80
2018-09-02T11:28:58.492Z,22.20
2018-09-02T11:31:28.466Z,22.40
2018-09-02T11:33:59.294Z,22.60
2018-09-02T11:36:28.974Z,22.90
2018-09-02T11:38:58.731Z,23.30
2018-09-02T11:41:28.401Z,23.60
2018-09-02T11:43:58.168Z,23.80
2018-09-02T11:46:27.797Z,23.80
2018-09-02T11:48:58.946Z,23.60
2018-09-02T11:51:42.310Z,23.60
2018-09-02T11:54:13.218Z,23.70
2018-09-02T11:56:45.292Z,24.20
2018-09-02T11:59:16.064Z,24.50
2018-09-02T12:01:46.108Z,24.70
2018-09-02T12:04:17.053Z,24.70
2018-09-02T12:06:49.107Z,24.50
2018-09-02T12:09:19.928Z,24.40
2018-09-02T12:11:50.982Z,24.30
2018-09-02T12:14:21.088Z,24.10
2018-09-02T12:16:51.105Z,24.00
2018-09-02T12:19:20.766Z,24.00
2018-09-02T12:21:52.665Z,23.90
2018-09-02T12:24:22.625Z,24.10
2018-09-02T12:26:52.951Z,23.90
2018-09-02T12:29:22.784Z,23.80
2018-09-02T12:31:52.627Z,23.70
2018-09-02T12:34:22.607Z,23.70
2018-09-02T12:36:54.173Z,23.70
2018-09-02T12:39:24.274Z,23.70
2018-09-02T12:41:54.321Z,23.70
2018-09-02T12:44:24.419Z,23.80
2018-09-02T12:46:55.905Z,23.90
2018-09-02T12:49:28.151Z,23.90
2018-09-02T12:52:00.107Z,24.20
2018-09-02T12:54:30.938Z,24.50
2018-09-02T12:57:01.983Z,24.90
2018-09-02T12:59:33.469Z,25.20
2018-09-02T13:02:06.874Z,25.40
2018-09-02T13:04:39.218Z,25.60
2018-09-02T13:07:11.469Z,25.80
2018-09-02T13:09:42.559Z,25.80
2018-09-02T13:12:14.431Z,25.60
2018-09-02T13:14:46.884Z,25.60
2018-09-02T13:17:19.152Z,25.50
2018-09-02T13:19:50.661Z,25.60
2018-09-02T13:22:23.452Z,26.00
2018-09-02T13:24:55.892Z,26.00
2018-09-02T13:27:27.178Z,25.90
2018-09-02T13:29:57.969Z,25.80
2018-09-02T13:32:28.437Z,26.00
2018-09-02T13:35:00.184Z,26.80
2018-09-02T13:37:30.946Z,27.50
2018-09-02T13:40:03.098Z,27.70
2018-09-02T13:42:33.990Z,27.40
2018-09-02T13:45:05.528Z,26.90
2018-09-02T13:47:36.464Z,26.70
2018-09-02T13:50:08.232Z,26.40
2018-09-02T13:52:39.195Z,26.30
2018-09-02T13:55:11.078Z,26.10
2018-09-02T13:57:42.734Z,25.90
2018-09-02T14:00:14.202Z,25.80
2018-09-02T14:02:44.540Z,25.80
2018-09-02T14:05:16.713Z,25.70
2018-09-02T14:07:48.774Z,25.60
2018-09-02T14:10:20.984Z,25.60
2018-09-02T14:12:53.366Z,25.70
2018-09-02T14:15:25.270Z,26.20
2018-09-02T14:17:56.687Z,26.60
2018-09-02T14:20:28.556Z,26.40
2018-09-02T14:23:00.441Z,26.40
2018-09-02T14:25:30.839Z,26.20
2018-09-02T14:28:01.740Z,26.10
2018-09-02T14:30:33.381Z,25.90
2018-09-02T14:33:05.249Z,25.80
2018-09-02T14:35:36.432Z,25.80
2018-09-02T14:38:07.412Z,25.90
2018-09-02T14:40:40.093Z,25.90
2018-09-02T14:43:11.564Z,26.00
2018-09-02T14:45:43.996Z,26.00
2018-09-02T14:48:15.352Z,25.90
2018-09-02T14:50:45.606Z,25.80
2018-09-02T14:53:17.026Z,25.50
2018-09-02T14:55:48.164Z,25.30
2018-09-02T14:58:20.323Z,25.20
2018-09-02T15:02:16.114Z,25.20
2018-09-02T15:04:47.419Z,25.20
2018-09-02T15:07:19.008Z,25.20
2018-09-02T15:09:49.277Z,25.30
2018-09-02T15:12:20.108Z,25.20
2018-09-02T15:14:52.109Z,25.10
2018-09-02T15:17:23.627Z,25.00
2018-09-02T15:19:55.350Z,25.00
2018-09-02T15:22:27.234Z,24.90
2018-09-02T15:24:59.053Z,25.00
2018-09-02T15:27:31.550Z,25.00
2018-09-02T15:30:02.224Z,24.90
2018-09-02T15:32:34.871Z,24.80
2018-09-02T15:35:07.640Z,24.90
2018-09-02T15:37:39.331Z,24.80
2018-09-02T15:40:11.533Z,24.80
2018-09-02T15:42:43.367Z,24.90
2018-09-02T15:45:14.701Z,24.80
2018-09-02T15:47:45.812Z,24.80
2018-09-02T15:50:16.715Z,24.70
2018-09-02T15:52:47.611Z,24.60
2018-09-02T15:55:19.258Z,24.60
2018-09-02T15:57:50.194Z,24.50
2018-09-02T16:00:51.765Z,24.50
2018-09-02T16:03:23.286Z,24.50
2018-09-02T16:05:54.843Z,24.50
2018-09-02T16:08:25.349Z,24.50
2018-09-02T16:10:57.899Z,24.60
2018-09-02T16:13:30.724Z,24.50
2018-09-02T16:16:02.173Z,24.60
2018-09-02T16:18:34.253Z,24.60
2018-09-02T16:21:05.040Z,24.50
2018-09-02T16:23:35.655Z,24.50
2018-09-02T16:26:07.173Z,24.40
2018-09-02T16:28:38.491Z,24.30
2018-09-02T16:31:10.097Z,24.10
2018-09-02T16:33:42.620Z,24.10
2018-09-02T16:36:14.969Z,24.10
2018-09-02T16:38:45.567Z,24.10
2018-09-02T16:41:16.504Z,24.00
2018-09-02T16:43:48.136Z,23.90
2018-09-02T16:46:20.159Z,23.80
2018-09-02T16:48:50.446Z,23.80
2018-09-02T16:51:21.479Z,23.70
2018-09-02T16:53:52.787Z,23.70
2018-09-02T16:56:24.359Z,23.60
2018-09-02T16:58:55.981Z,23.40
2018-09-02T17:01:27.516Z,23.40
2018-09-02T17:04:02.544Z,23.30
2018-09-02T17:06:34.925Z,23.30
2018-09-02T17:09:07.922Z,23.30
2018-09-02T17:11:39.607Z,23.30
2018-09-02T17:14:10.653Z,23.20
2018-09-02T17:16:42.558Z,23.10
2018-09-02T17:19:19.323Z,23.10
2018-09-02T17:21:51.009Z,23.10
2018-09-02T17:24:21.167Z,23.00
2018-09-02T17:26:52.167Z,23.00
2018-09-02T17:29:22.567Z,23.00
2018-09-02T17:31:53.236Z,23.00
2018-09-02T17:34:23.392Z,23.00
2018-09-02T17:36:53.760Z,22.90
2018-09-02T17:39:25.306Z,22.90
2018-09-02T17:41:56.550Z,22.90
2018-09-02T17:44:27.465Z,22.70
2018-09-02T17:46:58.969Z,22.70
2018-09-02T17:49:30.093Z,22.70
2018-09-02T17:52:02.477Z,22.60
2018-09-02T17:54:34.774Z,22.60
2018-09-02T17:57:06.778Z,22.60
2018-09-02T17:59:37.900Z,22.50
2018-09-02T18:02:09.160Z,22.40
2018-09-02T18:04:39.822Z,22.40
2018-09-02T18:07:10.586Z,22.40
2018-09-02T18:09:42.310Z,22.40
2018-09-02T18:12:14.502Z,22.20
2018-09-02T18:14:45.962Z,22.20
2018-09-02T18:17:17.851Z,22.20
2018-09-02T18:19:51.646Z,22.20
2018-09-02T18:22:29.794Z,22.10
2018-09-02T18:25:01.072Z,22.10
2018-09-02T18:27:34.281Z,22.10
2018-09-02T18:30:05.495Z,22.00
2018-09-02T18:32:37.404Z,22.00
2018-09-02T18:35:09.168Z,22.00
2018-09-02T18:37:40.779Z,21.90
2018-09-02T18:40:11.960Z,21.90
2018-09-02T18:42:43.323Z,21.90
2018-09-02T18:45:15.198Z,22.00
2018-09-02T18:47:45.357Z,21.90
2018-09-02T18:50:17.191Z,21.90
2018-09-02T18:52:49.041Z,21.90
2018-09-02T18:55:19.762Z,21.80
2018-09-02T18:57:52.439Z,21.80
2018-09-02T19:00:23.937Z,21.80
2018-09-02T19:02:55.782Z,21.70
2018-09-02T19:05:26.253Z,21.80
2018-09-02T19:07:57.904Z,21.70
2018-09-02T19:10:29.303Z,21.70
2018-09-02T19:13:00.478Z,21.70
2018-09-02T19:15:30.685Z,21.60
2018-09-02T19:18:02.453Z,21.60
2018-09-02T19:20:34.410Z,21.60
2018-09-02T19:23:05.411Z,21.60
2018-09-02T19:25:36.620Z,21.70
2018-09-02T19:28:08.253Z,21.60
2018-09-02T19:30:39.457Z,21.70
2018-09-02T19:33:09.501Z,21.70
2018-09-02T19:35:40.065Z,21.70
2018-09-02T19:38:13.718Z,21.70
2018-09-02T19:40:44.810Z,21.70
2018-09-02T19:43:16.157Z,21.70
2018-09-02T19:45:47.944Z,21.70
2018-09-02T19:48:18.345Z,21.70
2018-09-02T19:50:50.084Z,21.70
2018-09-02T19:53:21.118Z,21.60
2018-09-02T19:55:54.006Z,21.70
2018-09-02T19:58:26.239Z,21.60
2018-09-02T20:00:59.269Z,21.50
2018-09-02T20:03:30.463Z,21.50
2018-09-02T20:06:02.336Z,21.50
2018-09-02T20:08:35.393Z,21.40
2018-09-02T20:11:10.071Z,21.50
2018-09-02T20:13:42.203Z,21.40
2018-09-02T20:16:13.168Z,21.40
2018-09-02T20:18:45.951Z,21.40
2018-09-02T20:21:17.581Z,21.30
2018-09-02T20:23:48.179Z,21.40
2018-09-02T20:26:18.705Z,21.40
2018-09-02T20:28:54.220Z,21.30
2018-09-02T20:31:26.497Z,21.40
2018-09-02T20:33:57.770Z,21.30
2018-09-02T20:36:29.855Z,21.30
2018-09-02T20:39:02.542Z,21.20
2018-09-02T20:41:34.102Z,21.20
2018-09-02T20:44:09.451Z,21.20
2018-09-02T20:46:40.580Z,21.20
2018-09-02T20:49:12.248Z,21.20
2018-09-02T20:51:45.779Z,21.20
2018-09-02T20:54:19.186Z,21.20
2018-09-02T20:56:51.712Z,21.10
2018-09-02T20:59:22.903Z,21.10
2018-09-02T21:01:55.391Z,21.10
2018-09-02T21:04:26.301Z,21.10
2018-09-02T21:07:00.666Z,21.10
2018-09-02T21:09:31.658Z,21.10
2018-09-02T21:12:04.296Z,21.10
2018-09-02T21:14:35.244Z,21.00
2018-09-02T21:17:06.799Z,21.10
2018-09-02T21:19:37.899Z,21.00
2018-09-02T21:22:10.522Z,21.10
2018-09-02T21:24:43.618Z,21.00
2018-09-02T21:27:14.317Z,21.00
2018-09-02T21:29:45.788Z,20.90
2018-09-02T21:32:16.752Z,20.90
2018-09-02T21:34:47.705Z,20.90
2018-09-02T21:37:19.279Z,20.90
2018-09-02T21:39:51.271Z,20.90
2018-09-02T21:42:22.852Z,21.00
2018-09-02T21:44:54.214Z,21.00
2018-09-02T21:47:25.165Z,21.00
2018-09-02T21:49:56.236Z,21.00
2018-09-02T21:52:27.982Z,21.00
2018-09-02T21:54:58.632Z,21.00
2018-09-02T21:57:29.201Z,21.10
2018-09-02T22:00:00.599Z,21.00
2018-09-02T22:02:31.946Z,21.00
2018-09-02T22:05:04.167Z,21.00
2018-09-02T22:07:35.854Z,21.10
2018-09-02T22:10:08.066Z,21.10
2018-09-02T22:12:39.983Z,21.10
2018-09-02T22:15:12.968Z,21.00
2018-09-02T22:17:44.251Z,21.10
2018-09-02T22:20:14.540Z,21.00
2018-09-02T22:22:45.491Z,21.10
2018-09-02T22:25:15.969Z,21.00
2018-09-02T22:27:47.610Z,21.00
2018-09-02T22:30:19.110Z,21.00
2018-09-02T22:32:50.923Z,20.90
2018-09-02T22:35:21.457Z,21.00
2018-09-02T22:37:51.836Z,20.90
2018-09-02T22:42:50.749Z,21.00
2018-09-02T22:45:24.283Z,20.90
2018-09-02T22:47:55.742Z,20.80
2018-09-02T22:50:27.841Z,20.80
2018-09-02T22:53:00.016Z,20.80
2018-09-02T22:55:30.872Z,20.80
2018-09-02T22:58:02.839Z,20.80
2018-09-02T23:00:33.792Z,20.70
2018-09-02T23:03:05.075Z,20.60
2018-09-02T23:05:36.299Z,20.70
2018-09-02T23:08:06.436Z,20.70
2018-09-02T23:10:37.578Z,20.70
2018-09-02T23:13:09.036Z,20.70
2018-09-02T23:15:39.419Z,20.60
2018-09-02T23:18:11.634Z,20.50
2018-09-02T23:20:42.145Z,20.50
2018-09-02T23:23:13.656Z,20.50
2018-09-02T23:25:45.106Z,20.50
2018-09-02T23:28:16.581Z,20.60
2018-09-02T23:30:49.322Z,20.60
2018-09-02T23:33:20.493Z,20.60
2018-09-02T23:35:53.220Z,20.50
2018-09-02T23:38:24.577Z,20.60
2018-09-02T23:40:56.007Z,20.60
2018-09-02T23:43:27.162Z,20.50
2018-09-02T23:45:58.810Z,20.60
2018-09-02T23:48:29.885Z,20.50
2018-09-02T23:51:00.409Z,20.60
2018-09-02T23:53:32.236Z,20.60
2018-09-02T23:56:02.782Z,20.60
2018-09-02T23:58:34.874Z,20.70
